Etusivu
METAR-TAF:

METAR-TAF

Lentoasemat :

Auckland, Uusi-Seelanti

Aucklandin lentoasema

Leveyspiiri: 37-01S, Pituuspiiri: 174-48E, korkeus merenpinnasta: 7 m

Tämänhetkinen sää

Tämä raportti tehtiin 49 minuuttia sitten, kello 23.00 UTC
Tuuli 14 kn pohjoisesta/koillisesta
Lämpötila 22°C
Kosteus 88%
Ilmanpaine 1015 hPa
Näkyvyys: 7000 m
tihkusadetta

METAR: NZAA 182300Z AUTO 02014KT 7000 DZ BKN016/// OVC021/// 22/20 Q1015 BECMG 9999

Aika: 12:49 (23:49 UTC)

Sääennuste

Tämä raportti tehtiin 45 minuuttia sitten, kello 23.04 UTC
Ennuste voimassa 19. päivästä klo 00 UTC - 20. päivään klo 00 UTC
Tuuli 15 kn pohjoisesta/koillisesta
Näkyvyys 10 km tai enemmän
Hajonneita pilviä 2000 ft:n korkeudessa
heikkoja vesikuuroja
Ajoittain
19. päivästä klo 12 UTC - 19. päivään klo 20 UTC
Hajonneita pilviä 800 ft:n korkeudessa

TAF: NZAA 182304Z 1900/2000 02015KT 9999 -SHRA BKN020 TEMPO 1912/1920 BKN008

Säähavainnot ja -ennusteet yli 4000 lentoasemalta (METAR- ja TAF-raportit).

Käytössä olevat sääasemat on merkitty karttaan keltaisilla ja punaisilla pisteillä.

Aseta hiiri pisteen päälle nähdäksesi sääaseman nimen.

Klikkaa sitten nähdäksesi säähavainnot ja -ennusteet.

Kartan vaihtaminen: klikkaa mustalla rastilla varustettuja vihreitä pisteitä, niin voit zoomata sisään; viivalla varustettua vihreää pistettä, niin voit zoomata ulos tai vihreitä nuolia, niin pääset viereisille kartoille.


METAR-TAF: